sensor_id;sensor_type;location;lat;lon;timestamp;pressure;altitude;pressure_sealevel;temperature;humidity
23427;BME280;41148;45.420;10.952;2023-06-19T00:01:11;100632.06;;;23.93;59.80
23427;BME280;41148;45.420;10.952;2023-06-19T00:03:39;100640.22;;;23.93;59.78
23427;BME280;41148;45.420;10.952;2023-06-19T00:06:06;100646.75;;;24.02;60.41
23427;BME280;41148;45.420;10.952;2023-06-19T00:08:34;100641.22;;;23.92;61.10
23427;BME280;41148;45.420;10.952;2023-06-19T00:11:03;100647.91;;;23.88;61.83
23427;BME280;41148;45.420;10.952;2023-06-19T00:13:31;100639.81;;;23.77;62.45
23427;BME280;41148;45.420;10.952;2023-06-19T00:15:58;100648.50;;;23.91;62.09
23427;BME280;41148;45.420;10.952;2023-06-19T00:18:28;100634.97;;;23.80;61.92
23427;BME280;41148;45.420;10.952;2023-06-19T00:20:56;100638.09;;;23.53;62.78
23427;BME280;41148;45.420;10.952;2023-06-19T00:23:24;100643.41;;;23.55;63.44
23427;BME280;41148;45.420;10.952;2023-06-19T00:25:51;100639.13;;;23.30;63.91
23427;BME280;41148;45.420;10.952;2023-06-19T00:28:19;100642.34;;;23.12;64.77
23427;BME280;41148;45.420;10.952;2023-06-19T00:30:48;100656.94;;;23.11;65.40
23427;BME280;41148;45.420;10.952;2023-06-19T00:33:16;100648.03;;;22.87;66.11
23427;BME280;41148;45.420;10.952;2023-06-19T00:35:44;100657.50;;;22.81;66.19
23427;BME280;41148;45.420;10.952;2023-06-19T00:38:12;100658.38;;;22.82;66.80
23427;BME280;41148;45.420;10.952;2023-06-19T00:40:39;100666.00;;;22.77;66.86
23427;BME280;41148;45.420;10.952;2023-06-19T00:43:09;100639.97;;;22.74;66.95
23427;BME280;41148;45.420;10.952;2023-06-19T00:45:37;100655.53;;;22.83;66.46
23427;BME280;41148;45.420;10.952;2023-06-19T00:48:06;100662.06;;;22.81;66.06
23427;BME280;41148;45.420;10.952;2023-06-19T00:50:34;100680.09;;;22.82;65.85
23427;BME280;41148;45.420;10.952;2023-06-19T00:53:02;100665.28;;;22.75;65.65
23427;BME280;41148;45.420;10.952;2023-06-19T00:55:32;100682.81;;;22.82;66.04
23427;BME280;41148;45.420;10.952;2023-06-19T00:58:00;100678.72;;;22.76;66.62
23427;BME280;41148;45.420;10.952;2023-06-19T01:00:28;100684.13;;;22.65;65.94
23427;BME280;41148;45.420;10.952;2023-06-19T01:02:58;100667.97;;;22.64;65.99
23427;BME280;41148;45.420;10.952;2023-06-19T01:05:28;100685.00;;;22.66;66.12
23427;BME280;41148;45.420;10.952;2023-06-19T01:10:46;100681.28;;;22.55;66.72
23427;BME280;41148;45.420;10.952;2023-06-19T01:15:55;100692.25;;;22.54;66.66
23427;BME280;41148;45.420;10.952;2023-06-19T01:18:24;100700.28;;;22.55;66.89
23427;BME280;41148;45.420;10.952;2023-06-19T01:20:53;100705.97;;;22.52;67.17
23427;BME280;41148;45.420;10.952;2023-06-19T01:23:20;100700.41;;;22.54;66.62
23427;BME280;41148;45.420;10.952;2023-06-19T01:25:48;100707.94;;;22.50;66.67
23427;BME280;41148;45.420;10.952;2023-06-19T01:28:16;100696.44;;;22.58;66.22
23427;BME280;41148;45.420;10.952;2023-06-19T01:30:43;100696.31;;;22.48;66.34
23427;BME280;41148;45.420;10.952;2023-06-19T01:33:23;100699.13;;;22.47;66.50
23427;BME280;41148;45.420;10.952;2023-06-19T01:35:55;100706.16;;;22.38;66.81
23427;BME280;41148;45.420;10.952;2023-06-19T01:38:24;100709.81;;;22.26;67.82
23427;BME280;41148;45.420;10.952;2023-06-19T01:40:54;100699.81;;;22.26;67.33
23427;BME280;41148;45.420;10.952;2023-06-19T01:43:23;100705.28;;;22.38;67.76
23427;BME280;41148;45.420;10.952;2023-06-19T01:45:52;100705.41;;;22.36;67.70
23427;BME280;41148;45.420;10.952;2023-06-19T01:48:19;100712.06;;;22.32;68.07
23427;BME280;41148;45.420;10.952;2023-06-19T01:50:48;100708.56;;;22.06;69.09
23427;BME280;41148;45.420;10.952;2023-06-19T01:53:16;100717.53;;;22.19;68.61
23427;BME280;41148;45.420;10.952;2023-06-19T01:55:46;100714.50;;;22.24;68.46
23427;BME280;41148;45.420;10.952;2023-06-19T01:58:13;100715.22;;;22.26;68.46
23427;BME280;41148;45.420;10.952;2023-06-19T02:00:41;100707.63;;;22.31;68.55
23427;BME280;41148;45.420;10.952;2023-06-19T02:03:08;100698.38;;;22.34;67.65
23427;BME280;41148;45.420;10.952;2023-06-19T02:05:36;100696.47;;;22.23;68.36
23427;BME280;41148;45.420;10.952;2023-06-19T02:08:07;100720.41;;;22.29;68.32
23427;BME280;41148;45.420;10.952;2023-06-19T02:10:36;100712.53;;;22.26;68.17
23427;BME280;41148;45.420;10.952;2023-06-19T02:13:04;100727.47;;;22.32;68.20
23427;BME280;41148;45.420;10.952;2023-06-19T02:15:31;100726.91;;;22.15;68.84
23427;BME280;41148;45.420;10.952;2023-06-19T02:17:59;100731.63;;;22.24;68.61
23427;BME280;41148;45.420;10.952;2023-06-19T02:20:27;100725.41;;;22.11;68.87
23427;BME280;41148;45.420;10.952;2023-06-19T02:22:56;100737.31;;;22.21;68.98
23427;BME280;41148;45.420;10.952;2023-06-19T02:25:23;100743.19;;;22.15;69.41
23427;BME280;41148;45.420;10.952;2023-06-19T02:27:51;100737.63;;;22.17;69.45
23427;BME280;41148;45.420;10.952;2023-06-19T02:30:18;100729.22;;;22.09;69.44
23427;BME280;41148;45.420;10.952;2023-06-19T02:32:46;100723.94;;;21.94;70.02
23427;BME280;41148;45.420;10.952;2023-06-19T02:35:14;100727.06;;;22.01;70.03
23427;BME280;41148;45.420;10.952;2023-06-19T02:37:42;100728.00;;;22.00;70.00
23427;BME280;41148;45.420;10.952;2023-06-19T02:40:10;100742.13;;;22.05;70.37
23427;BME280;41148;45.420;10.952;2023-06-19T02:42:38;100729.94;;;21.87;70.36
23427;BME280;41148;45.420;10.952;2023-06-19T02:45:06;100733.38;;;21.89;70.02
23427;BME280;41148;45.420;10.952;2023-06-19T02:47:35;100716.59;;;21.84;69.78
23427;BME280;41148;45.420;10.952;2023-06-19T02:50:05;100730.72;;;22.00;69.31
23427;BME280;41148;45.420;10.952;2023-06-19T02:52:32;100722.66;;;21.87;69.83
23427;BME280;41148;45.420;10.952;2023-06-19T02:55:00;100729.25;;;21.96;69.36
23427;BME280;41148;45.420;10.952;2023-06-19T02:57:29;100718.84;;;21.90;69.65
23427;BME280;41148;45.420;10.952;2023-06-19T02:59:57;100718.09;;;21.88;69.70
23427;BME280;41148;45.420;10.952;2023-06-19T03:02:24;100719.19;;;21.85;69.50
23427;BME280;41148;45.420;10.952;2023-06-19T03:04:52;100726.47;;;21.85;69.55
23427;BME280;41148;45.420;10.952;2023-06-19T03:07:20;100734.84;;;21.82;69.82
23427;BME280;41148;45.420;10.952;2023-06-19T03:09:47;100744.16;;;21.78;69.51
23427;BME280;41148;45.420;10.952;2023-06-19T03:12:15;100733.78;;;21.71;69.26
23427;BME280;41148;45.420;10.952;2023-06-19T03:14:42;100734.84;;;21.82;68.77
23427;BME280;41148;45.420;10.952;2023-06-19T03:17:11;100740.97;;;21.96;68.68
23427;BME280;41148;45.420;10.952;2023-06-19T03:19:39;100721.28;;;21.82;68.88
23427;BME280;41148;45.420;10.952;2023-06-19T03:22:07;100725.06;;;21.79;68.99
23427;BME280;41148;45.420;10.952;2023-06-19T03:24:34;100731.47;;;21.78;69.16
23427;BME280;41148;45.420;10.952;2023-06-19T03:27:20;100736.88;;;21.91;68.86
23427;BME280;41148;45.420;10.952;2023-06-19T03:29:48;100748.00;;;21.99;68.91
23427;BME280;41148;45.420;10.952;2023-06-19T03:32:21;100751.75;;;21.85;69.67
23427;BME280;41148;45.420;10.952;2023-06-19T03:34:49;100728.56;;;21.68;69.62
23427;BME280;41148;45.420;10.952;2023-06-19T03:37:17;100726.97;;;21.66;69.91
23427;BME280;41148;45.420;10.952;2023-06-19T03:39:45;100735.41;;;21.74;70.12
23427;BME280;41148;45.420;10.952;2023-06-19T03:42:13;100743.59;;;21.85;69.86
23427;BME280;41148;45.420;10.952;2023-06-19T03:44:41;100746.44;;;21.84;69.42
23427;BME280;41148;45.420;10.952;2023-06-19T03:47:09;100749.22;;;21.95;69.44
23427;BME280;41148;45.420;10.952;2023-06-19T03:49:36;100758.56;;;21.91;69.86
23427;BME280;41148;45.420;10.952;2023-06-19T03:52:04;100760.97;;;21.83;70.05
23427;BME280;41148;45.420;10.952;2023-06-19T03:54:32;100756.09;;;21.75;70.14
23427;BME280;41148;45.420;10.952;2023-06-19T03:57:00;100749.25;;;21.82;69.49
23427;BME280;41148;45.420;10.952;2023-06-19T03:59:29;100746.81;;;21.90;69.72
23427;BME280;41148;45.420;10.952;2023-06-19T04:01:57;100761.16;;;21.92;69.59
23427;BME280;41148;45.420;10.952;2023-06-19T04:04:25;100762.72;;;21.84;70.16
23427;BME280;41148;45.420;10.952;2023-06-19T04:06:52;100745.69;;;21.82;70.36
23427;BME280;41148;45.420;10.952;2023-06-19T04:09:20;100748.72;;;21.77;70.51
23427;BME280;41148;45.420;10.952;2023-06-19T04:11:48;100757.03;;;21.87;70.19
23427;BME280;41148;45.420;10.952;2023-06-19T04:14:15;100748.59;;;21.79;70.18
23427;BME280;41148;45.420;10.952;2023-06-19T04:16:43;100733.19;;;21.79;70.25
23427;BME280;41148;45.420;10.952;2023-06-19T04:19:11;100733.84;;;21.83;70.63
23427;BME280;41148;45.420;10.952;2023-06-19T04:21:38;100741.88;;;21.84;70.96
23427;BME280;41148;45.420;10.952;2023-06-19T04:24:06;100733.84;;;21.83;71.26
23427;BME280;41148;45.420;10.952;2023-06-19T04:26:36;100752.84;;;21.83;71.73
23427;BME280;41148;45.420;10.952;2023-06-19T04:29:04;100746.94;;;21.89;71.70
23427;BME280;41148;45.420;10.952;2023-06-19T04:31:33;100741.31;;;21.92;71.58
23427;BME280;41148;45.420;10.952;2023-06-19T04:34:10;100744.66;;;21.95;71.91
23427;BME280;41148;45.420;10.952;2023-06-19T04:36:37;100746.25;;;22.11;70.59
23427;BME280;41148;45.420;10.952;2023-06-19T04:39:05;100742.56;;;22.12;70.66
23427;BME280;41148;45.420;10.952;2023-06-19T04:41:33;100735.41;;;22.11;70.41
23427;BME280;41148;45.420;10.952;2023-06-19T04:44:01;100737.75;;;22.15;70.01
23427;BME280;41148;45.420;10.952;2023-06-19T04:46:30;100746.25;;;22.11;71.27
23427;BME280;41148;45.420;10.952;2023-06-19T04:48:58;100746.66;;;22.17;70.92
23427;BME280;41148;45.420;10.952;2023-06-19T04:51:25;100731.59;;;22.13;71.18
23427;BME280;41148;45.420;10.952;2023-06-19T04:53:53;100748.78;;;22.25;71.03
23427;BME280;41148;45.420;10.952;2023-06-19T04:56:21;100743.25;;;22.26;70.76
23427;BME280;41148;45.420;10.952;2023-06-19T04:58:48;100734.88;;;22.30;70.48
23427;BME280;41148;45.420;10.952;2023-06-19T05:01:17;100736.13;;;22.37;70.36
23427;BME280;41148;45.420;10.952;2023-06-19T05:03:49;100739.81;;;22.36;69.77
23427;BME280;41148;45.420;10.952;2023-06-19T05:06:17;100727.38;;;22.33;69.55
23427;BME280;41148;45.420;10.952;2023-06-19T05:08:44;100739.25;;;22.43;69.85
23427;BME280;41148;45.420;10.952;2023-06-19T05:11:12;100740.97;;;22.44;70.09
23427;BME280;41148;45.420;10.952;2023-06-19T05:13:40;100744.22;;;22.49;69.42
23427;BME280;41148;45.420;10.952;2023-06-19T05:16:08;100735.81;;;22.52;69.48
23427;BME280;41148;45.420;10.952;2023-06-19T05:18:35;100738.81;;;22.61;68.89
23427;BME280;41148;45.420;10.952;2023-06-19T05:21:03;100750.03;;;22.67;67.79
23427;BME280;41148;45.420;10.952;2023-06-19T05:23:30;100742.56;;;22.71;67.90
23427;BME280;41148;45.420;10.952;2023-06-19T05:25:58;100736.25;;;22.70;67.11
23427;BME280;41148;45.420;10.952;2023-06-19T05:28:25;100753.25;;;22.96;64.70
23427;BME280;41148;45.420;10.952;2023-06-19T05:30:53;100749.56;;;22.97;64.74
23427;BME280;41148;45.420;10.952;2023-06-19T05:33:21;100747.59;;;22.99;64.58
23427;BME280;41148;45.420;10.952;2023-06-19T05:35:50;100744.88;;;23.10;63.88
23427;BME280;41148;45.420;10.952;2023-06-19T05:38:20;100750.19;;;23.12;63.82
23427;BME280;41148;45.420;10.952;2023-06-19T05:40:48;100740.03;;;23.03;64.58
23427;BME280;41148;45.420;10.952;2023-06-19T05:43:15;100740.91;;;23.03;64.60
23427;BME280;41148;45.420;10.952;2023-06-19T05:45:43;100738.19;;;23.14;65.26
23427;BME280;41148;45.420;10.952;2023-06-19T05:48:10;100745.53;;;23.36;64.55
23427;BME280;41148;45.420;10.952;2023-06-19T05:50:38;100738.75;;;23.64;63.17
23427;BME280;41148;45.420;10.952;2023-06-19T05:53:06;100752.03;;;24.44;60.37
23427;BME280;41148;45.420;10.952;2023-06-19T05:55:33;100751.53;;;24.71;59.13
23427;BME280;41148;45.420;10.952;2023-06-19T05:58:02;100741.16;;;24.65;59.62
23427;BME280;41148;45.420;10.952;2023-06-19T06:00:30;100738.94;;;24.38;59.89
23427;BME280;41148;45.420;10.952;2023-06-19T06:02:59;100742.06;;;24.11;60.48
23427;BME280;41148;45.420;10.952;2023-06-19T06:05:27;100752.88;;;24.13;60.74
23427;BME280;41148;45.420;10.952;2023-06-19T06:07:55;100741.41;;;24.30;60.47
23427;BME280;41148;45.420;10.952;2023-06-19T06:10:24;100750.47;;;24.19;60.20
23427;BME280;41148;45.420;10.952;2023-06-19T06:12:53;100752.88;;;24.13;60.24
23427;BME280;41148;45.420;10.952;2023-06-19T06:15:20;100748.94;;;23.94;60.65
23427;BME280;41148;45.420;10.952;2023-06-19T06:17:48;100755.28;;;23.84;61.52
23427;BME280;41148;45.420;10.952;2023-06-19T06:20:16;100753.75;;;23.91;61.32
23427;BME280;41148;45.420;10.952;2023-06-19T06:22:44;100739.53;;;23.98;60.98
23427;BME280;41148;45.420;10.952;2023-06-19T06:25:11;100742.53;;;24.27;60.04
23427;BME280;41148;45.420;10.952;2023-06-19T06:27:41;100750.91;;;24.47;59.32
23427;BME280;41148;45.420;10.952;2023-06-19T06:30:09;100753.25;;;24.72;58.80
23427;BME280;41148;45.420;10.952;2023-06-19T06:32:38;100739.72;;;24.82;58.43
23427;BME280;41148;45.420;10.952;2023-06-19T06:35:06;100749.06;;;24.89;58.05
23427;BME280;41148;45.420;10.952;2023-06-19T06:37:34;100746.53;;;24.55;59.17
23427;BME280;41148;45.420;10.952;2023-06-19T06:40:02;100741.28;;;24.32;60.14
23427;BME280;41148;45.420;10.952;2023-06-19T06:42:32;100731.41;;;24.19;60.65
23427;BME280;41148;45.420;10.952;2023-06-19T06:44:59;100742.31;;;24.19;60.18
23427;BME280;41148;45.420;10.952;2023-06-19T06:47:27;100723.13;;;24.32;59.98
23427;BME280;41148;45.420;10.952;2023-06-19T06:49:54;100720.13;;;24.35;59.87
23427;BME280;41148;45.420;10.952;2023-06-19T06:52:22;100729.63;;;24.41;59.20
23427;BME280;41148;45.420;10.952;2023-06-19T06:54:50;100725.78;;;24.43;59.59
23427;BME280;41148;45.420;10.952;2023-06-19T06:57:18;100726.25;;;24.48;60.41
23427;BME280;41148;45.420;10.952;2023-06-19T06:59:46;100706.88;;;24.42;60.73
23427;BME280;41148;45.420;10.952;2023-06-19T07:02:14;100726.03;;;24.40;60.75
23427;BME280;41148;45.420;10.952;2023-06-19T07:04:41;100725.94;;;24.42;61.02
23427;BME280;41148;45.420;10.952;2023-06-19T07:07:09;100723.72;;;24.36;60.49
23427;BME280;41148;45.420;10.952;2023-06-19T07:09:37;100729.03;;;24.37;61.42
23427;BME280;41148;45.420;10.952;2023-06-19T07:12:04;100720.72;;;24.39;60.82
23427;BME280;41148;45.420;10.952;2023-06-19T07:14:34;100723.22;;;24.42;60.65
23427;BME280;41148;45.420;10.952;2023-06-19T07:17:01;100707.47;;;24.45;60.83
23427;BME280;41148;45.420;10.952;2023-06-19T07:19:29;100704.00;;;24.43;59.46
23427;BME280;41148;45.420;10.952;2023-06-19T07:21:57;100725.31;;;24.59;59.10
23427;BME280;41148;45.420;10.952;2023-06-19T07:24:24;100702.28;;;24.63;59.25
23427;BME280;41148;45.420;10.952;2023-06-19T07:26:52;100703.16;;;24.84;58.47
23427;BME280;41148;45.420;10.952;2023-06-19T07:29:20;100709.09;;;24.99;59.65
23427;BME280;41148;45.420;10.952;2023-06-19T07:31:48;100697.94;;;25.23;58.32
23427;BME280;41148;45.420;10.952;2023-06-19T07:34:16;100712.94;;;25.38;56.91
23427;BME280;41148;45.420;10.952;2023-06-19T07:36:44;100716.59;;;25.28;56.10
23427;BME280;41148;45.420;10.952;2023-06-19T07:39:11;100724.28;;;25.13;56.54
23427;BME280;41148;45.420;10.952;2023-06-19T07:41:39;100712.22;;;24.95;57.30
23427;BME280;41148;45.420;10.952;2023-06-19T07:44:06;100722.50;;;25.02;57.04
23427;BME280;41148;45.420;10.952;2023-06-19T07:46:34;100707.91;;;25.13;56.30
23427;BME280;41148;45.420;10.952;2023-06-19T07:49:02;100722.38;;;25.34;56.34
23427;BME280;41148;45.420;10.952;2023-06-19T07:51:29;100715.75;;;25.37;56.93
23427;BME280;41148;45.420;10.952;2023-06-19T07:53:57;100720.72;;;25.53;56.05
23427;BME280;41148;45.420;10.952;2023-06-19T07:56:24;100734.72;;;25.69;55.54
23427;BME280;41148;45.420;10.952;2023-06-19T07:58:52;100720.81;;;25.72;55.74
23427;BME280;41148;45.420;10.952;2023-06-19T08:01:20;100715.00;;;25.65;57.43
23427;BME280;41148;45.420;10.952;2023-06-19T08:03:47;100727.16;;;25.82;57.26
23427;BME280;41148;45.420;10.952;2023-06-19T08:06:15;100738.25;;;26.00;56.13
23427;BME280;41148;45.420;10.952;2023-06-19T08:08:43;100729.38;;;26.08;56.20
23427;BME280;41148;45.420;10.952;2023-06-19T08:11:10;100727.03;;;26.03;55.75
23427;BME280;41148;45.420;10.952;2023-06-19T08:13:37;100731.66;;;26.12;54.93
23427;BME280;41148;45.420;10.952;2023-06-19T08:16:06;100744.59;;;26.20;54.09
23427;BME280;41148;45.420;10.952;2023-06-19T08:18:34;100736.88;;;26.35;54.21
23427;BME280;41148;45.420;10.952;2023-06-19T08:21:01;100744.19;;;26.53;54.11
23427;BME280;41148;45.420;10.952;2023-06-19T08:23:29;100746.38;;;26.50;54.41
23427;BME280;41148;45.420;10.952;2023-06-19T08:25:57;100747.06;;;26.62;53.41
23427;BME280;41148;45.420;10.952;2023-06-19T08:28:24;100746.53;;;26.48;54.45
23427;BME280;41148;45.420;10.952;2023-06-19T08:30:52;100758.47;;;26.57;55.00
23427;BME280;41148;45.420;10.952;2023-06-19T08:33:20;100763.91;;;26.47;55.20
23427;BME280;41148;45.420;10.952;2023-06-19T08:35:47;100748.38;;;26.48;54.74
23427;BME280;41148;45.420;10.952;2023-06-19T08:38:15;100750.56;;;26.54;54.06
23427;BME280;41148;45.420;10.952;2023-06-19T08:40:43;100748.94;;;26.61;53.46
23427;BME280;41148;45.420;10.952;2023-06-19T08:43:11;100773.84;;;26.58;54.19
23427;BME280;41148;45.420;10.952;2023-06-19T08:45:40;100774.13;;;26.74;52.99
23427;BME280;41148;45.420;10.952;2023-06-19T08:48:13;100759.72;;;26.82;53.65
23427;BME280;41148;45.420;10.952;2023-06-19T08:50:41;100769.91;;;26.90;53.81
23427;BME280;41148;45.420;10.952;2023-06-19T08:53:09;100770.53;;;27.03;53.07
23427;BME280;41148;45.420;10.952;2023-06-19T08:55:36;100763.75;;;27.07;52.87
23427;BME280;41148;45.420;10.952;2023-06-19T08:58:04;100758.81;;;27.10;52.97
23427;BME280;41148;45.420;10.952;2023-06-19T09:00:32;100753.66;;;27.07;52.81
23427;BME280;41148;45.420;10.952;2023-06-19T09:03:01;100754.09;;;27.13;52.31
23427;BME280;41148;45.420;10.952;2023-06-19T09:05:41;100768.88;;;27.20;53.05
23427;BME280;41148;45.420;10.952;2023-06-19T09:08:19;100752.47;;;27.20;52.80
23427;BME280;41148;45.420;10.952;2023-06-19T09:11:17;100743.53;;;27.27;52.57
23427;BME280;41148;45.420;10.952;2023-06-19T09:13:45;100753.56;;;27.36;52.08
23427;BME280;41148;45.420;10.952;2023-06-19T09:16:22;100752.38;;;27.49;51.32
23427;BME280;41148;45.420;10.952;2023-06-19T09:18:51;100756.31;;;27.36;52.01
23427;BME280;41148;45.420;10.952;2023-06-19T09:21:21;100754.25;;;27.48;52.02
23427;BME280;41148;45.420;10.952;2023-06-19T09:23:50;100742.25;;;27.31;52.88
23427;BME280;41148;45.420;10.952;2023-06-19T09:26:29;100740.44;;;27.40;53.27
23427;BME280;41148;45.420;10.952;2023-06-19T09:28:57;100757.94;;;27.66;52.20
23427;BME280;41148;45.420;10.952;2023-06-19T09:31:32;100751.97;;;27.81;50.47
23427;BME280;41148;45.420;10.952;2023-06-19T09:34:00;100746.84;;;27.95;49.72
23427;BME280;41148;45.420;10.952;2023-06-19T09:36:28;100753.19;;;28.14;50.56
23427;BME280;41148;45.420;10.952;2023-06-19T09:38:59;100743.97;;;28.15;48.18
23427;BME280;41148;45.420;10.952;2023-06-19T09:41:29;100752.81;;;28.27;47.98
23427;BME280;41148;45.420;10.952;2023-06-19T09:43:58;100754.00;;;28.24;48.26
23427;BME280;41148;45.420;10.952;2023-06-19T09:46:30;100751.81;;;28.45;48.05
23427;BME280;41148;45.420;10.952;2023-06-19T09:49:01;100754.31;;;28.74;47.78
23427;BME280;41148;45.420;10.952;2023-06-19T09:51:35;100745.84;;;28.86;47.39
23427;BME280;41148;45.420;10.952;2023-06-19T09:54:05;100736.03;;;28.57;48.07
23427;BME280;41148;45.420;10.952;2023-06-19T09:56:33;100751.22;;;28.34;48.95
23427;BME280;41148;45.420;10.952;2023-06-19T09:59:02;100748.38;;;28.43;47.78
23427;BME280;41148;45.420;10.952;2023-06-19T10:01:31;100752.84;;;28.62;46.22
23427;BME280;41148;45.420;10.952;2023-06-19T10:04:04;100752.84;;;28.62;46.45
23427;BME280;41148;45.420;10.952;2023-06-19T10:06:32;100755.84;;;28.51;45.96
23427;BME280;41148;45.420;10.952;2023-06-19T10:09:07;100754.03;;;28.60;45.37
23427;BME280;41148;45.420;10.952;2023-06-19T10:11:46;100748.31;;;28.53;46.95
23427;BME280;41148;45.420;10.952;2023-06-19T10:14:14;100737.34;;;28.35;46.17
23427;BME280;41148;45.420;10.952;2023-06-19T10:16:46;100748.22;;;28.45;46.15
23427;BME280;41148;45.420;10.952;2023-06-19T10:19:15;100742.28;;;28.49;44.70
23427;BME280;41148;45.420;10.952;2023-06-19T10:21:44;100735.50;;;28.26;43.97
23427;BME280;41148;45.420;10.952;2023-06-19T10:24:17;100739.09;;;28.27;45.08
23427;BME280;41148;45.420;10.952;2023-06-19T10:27:02;100736.56;;;28.61;45.05
23427;BME280;41148;45.420;10.952;2023-06-19T10:29:39;100745.47;;;28.80;43.12
23427;BME280;41148;45.420;10.952;2023-06-19T10:32:08;100744.06;;;28.76;43.91
23427;BME280;41148;45.420;10.952;2023-06-19T10:34:36;100735.88;;;28.59;44.09
23427;BME280;41148;45.420;10.952;2023-06-19T10:37:04;100737.28;;;28.45;43.79
23427;BME280;41148;45.420;10.952;2023-06-19T10:39:32;100735.00;;;28.40;43.49
23427;BME280;41148;45.420;10.952;2023-06-19T10:41:59;100735.63;;;28.52;43.56
23427;BME280;41148;45.420;10.952;2023-06-19T10:44:28;100744.16;;;28.49;42.46
23427;BME280;41148;45.420;10.952;2023-06-19T10:46:56;100745.03;;;28.67;42.35
23427;BME280;41148;45.420;10.952;2023-06-19T10:49:23;100740.06;;;28.71;41.61
23427;BME280;41148;45.420;10.952;2023-06-19T10:51:51;100744.94;;;28.77;41.58
23427;BME280;41148;45.420;10.952;2023-06-19T10:54:21;100734.44;;;28.72;41.11
23427;BME280;41148;45.420;10.952;2023-06-19T10:56:48;100737.72;;;28.76;40.98
23427;BME280;41148;45.420;10.952;2023-06-19T10:59:18;100740.84;;;28.63;41.67
23427;BME280;41148;45.420;10.952;2023-06-19T11:01:47;100726.91;;;28.74;42.72
23427;BME280;41148;45.420;10.952;2023-06-19T11:04:15;100727.81;;;28.83;43.35
23427;BME280;41148;45.420;10.952;2023-06-19T11:06:44;100726.50;;;28.87;42.49
23427;BME280;41148;45.420;10.952;2023-06-19T11:09:12;100723.28;;;28.74;43.57
23427;BME280;41148;45.420;10.952;2023-06-19T11:11:45;100722.34;;;29.01;42.12
23427;BME280;41148;45.420;10.952;2023-06-19T11:14:14;100722.72;;;29.06;43.08
23427;BME280;41148;45.420;10.952;2023-06-19T11:16:45;100726.28;;;28.80;42.42
23427;BME280;41148;45.420;10.952;2023-06-19T11:19:18;100720.09;;;28.78;43.80
23427;BME280;41148;45.420;10.952;2023-06-19T11:21:48;100718.28;;;28.87;43.63
23427;BME280;41148;45.420;10.952;2023-06-19T11:24:16;100712.72;;;28.79;43.76
23427;BME280;41148;45.420;10.952;2023-06-19T11:26:46;100711.63;;;28.90;43.45
23427;BME280;41148;45.420;10.952;2023-06-19T11:29:30;100718.19;;;28.97;42.67
23427;BME280;41148;45.420;10.952;2023-06-19T11:32:06;100709.66;;;29.00;44.74
23427;BME280;41148;45.420;10.952;2023-06-19T11:34:38;100718.72;;;29.00;41.88
23427;BME280;41148;45.420;10.952;2023-06-19T11:39:46;100702.94;;;29.28;41.40
23427;BME280;41148;45.420;10.952;2023-06-19T11:42:14;100706.50;;;29.21;41.59
23427;BME280;41148;45.420;10.952;2023-06-19T11:45:00;100701.22;;;29.27;41.65
23427;BME280;41148;45.420;10.952;2023-06-19T11:47:30;100700.94;;;29.39;41.60
23427;BME280;41148;45.420;10.952;2023-06-19T11:49:59;100695.56;;;29.29;41.74
23427;BME280;41148;45.420;10.952;2023-06-19T11:52:28;100690.59;;;29.24;41.22
23427;BME280;41148;45.420;10.952;2023-06-19T11:54:57;100697.81;;;29.33;40.89
23427;BME280;41148;45.420;10.952;2023-06-19T11:57:26;100687.19;;;29.30;41.45
23427;BME280;41148;45.420;10.952;2023-06-19T11:59:54;100686.19;;;29.40;40.80
23427;BME280;41148;45.420;10.952;2023-06-19T12:02:21;100687.13;;;29.48;40.83
23427;BME280;41148;45.420;10.952;2023-06-19T12:04:49;100671.34;;;29.16;41.20
23427;BME280;41148;45.420;10.952;2023-06-19T12:07:17;100674.91;;;29.08;41.54
23427;BME280;41148;45.420;10.952;2023-06-19T12:09:44;100668.50;;;29.00;41.45
23427;BME280;41148;45.420;10.952;2023-06-19T12:12:12;100669.97;;;29.20;40.49
23427;BME280;41148;45.420;10.952;2023-06-19T12:14:39;100654.16;;;29.14;40.39
23427;BME280;41148;45.420;10.952;2023-06-19T12:17:07;100670.72;;;29.30;40.38
23427;BME280;41148;45.420;10.952;2023-06-19T12:19:36;100655.06;;;29.23;40.94
23427;BME280;41148;45.420;10.952;2023-06-19T12:22:04;100652.31;;;29.23;40.72
23427;BME280;41148;45.420;10.952;2023-06-19T12:24:31;100650.16;;;29.00;42.53
23427;BME280;41148;45.420;10.952;2023-06-19T12:26:59;100650.56;;;29.05;42.61
23427;BME280;41148;45.420;10.952;2023-06-19T12:29:26;100647.22;;;29.28;40.26
23427;BME280;41148;45.420;10.952;2023-06-19T12:32:00;100647.38;;;29.26;40.54
23427;BME280;41148;45.420;10.952;2023-06-19T12:34:28;100643.22;;;29.22;40.63
23427;BME280;41148;45.420;10.952;2023-06-19T12:36:58;100652.66;;;29.20;41.17
23427;BME280;41148;45.420;10.952;2023-06-19T12:39:25;100645.81;;;29.24;39.93
23427;BME280;41148;45.420;10.952;2023-06-19T12:41:53;100660.47;;;29.41;39.93
23427;BME280;41148;45.420;10.952;2023-06-19T12:44:21;100642.66;;;29.45;37.98
23427;BME280;41148;45.420;10.952;2023-06-19T12:46:49;100647.66;;;29.49;38.38
23427;BME280;41148;45.420;10.952;2023-06-19T12:49:16;100636.81;;;29.48;38.02
23427;BME280;41148;45.420;10.952;2023-06-19T12:51:44;100629.88;;;29.53;38.25
23427;BME280;41148;45.420;10.952;2023-06-19T12:54:11;100648.72;;;29.56;40.04
23427;BME280;41148;45.420;10.952;2023-06-19T12:56:39;100636.06;;;29.29;40.18